Time;durP1;ratioP1;P1;durP2;ratioP2;P2;SDS_P1;SDS_P2;PMS_P1;PMS_P2;Temp;Humidity;BMP_temperature;BMP_pressure;BME280_temperature;BME280_humidity;BME280_pressure;Samples;Min_cycle;Max_cycle;Signal;HPM_P1;HPM_P2
2022/06/19 00:02:02;;;;;;;13.90;2.13;;;;;;;;;;5109896;27;20028;-80
2022/06/19 00:04:28;;;;;;;11.80;2.33;;;;;;;;;;5093389;28;20056;-80
2022/06/19 00:06:56;;;;;;;16.00;2.33;;;;;;;;;;5071586;28;20047;-78
2022/06/19 00:09:25;;;;;;;11.88;2.33;;;;;;;;;;5089221;28;20507;-79
2022/06/19 00:11:52;;;;;;;9.98;2.08;;;;;;;;;;5101283;28;21753;-81
2022/06/19 00:14:18;;;;;;;11.55;2.00;;;;;;;;;;5092961;28;20040;-81
2022/06/19 00:16:44;;;;;;;11.10;2.30;;;;;;;;;;5099441;28;20109;-77
2022/06/19 00:19:10;;;;;;;15.75;2.63;;;;;;;;;;5091076;28;20037;-78
2022/06/19 00:21:36;;;;;;;14.75;2.60;;;;;;;;;;5102788;28;20126;-78
2022/06/19 00:24:02;;;;;;;14.63;2.55;;;;;;;;;;5095617;28;20043;-81
2022/06/19 00:26:28;;;;;;;8.95;2.13;;;;;;;;;;5094479;28;20044;-80
2022/06/19 00:28:57;;;;;;;14.05;2.60;;;;;;;;;;5105668;28;20039;-80
2022/06/19 00:31:26;;;;;;;9.30;1.75;;;;;;;;;;5095963;28;20048;-79
2022/06/19 00:33:52;;;;;;;14.30;2.92;;;;;;;;;;5094837;28;20131;-82
2022/06/19 00:36:21;;;;;;;15.32;2.58;;;;;;;;;;5102899;28;20081;-82
2022/06/19 00:38:47;;;;;;;17.83;2.72;;;;;;;;;;5097755;28;20383;-82
2022/06/19 00:41:13;;;;;;;13.07;2.72;;;;;;;;;;5103011;28;20142;-81
2022/06/19 00:43:55;;;;;;;11.80;2.42;;;;;;;;;;5096131;28;20506;-82
2022/06/19 00:46:40;;;;;;;16.88;2.40;;;;;;;;;;5104764;28;20168;-83
2022/06/19 00:49:09;;;;;;;15.32;2.38;;;;;;;;;;5092566;28;20051;-82
2022/06/19 00:51:35;;;;;;;17.13;2.45;;;;;;;;;;5103111;28;20051;-82
2022/06/19 00:54:01;;;;;;;19.35;2.65;;;;;;;;;;5081295;28;20039;-82
2022/06/19 00:56:30;;;;;;;10.05;2.33;;;;;;;;;;5095123;28;20085;-78
2022/06/19 00:58:56;;;;;;;11.90;2.33;;;;;;;;;;5073569;28;20044;-79
2022/06/19 01:01:24;;;;;;;15.60;2.92;;;;;;;;;;5089818;28;20052;-84
2022/06/19 01:03:53;;;;;;;13.60;3.05;;;;;;;;;;5087420;28;20078;-83
2022/06/19 01:06:21;;;;;;;14.40;2.63;;;;;;;;;;5094448;28;20062;-81
2022/06/19 01:08:47;;;;;;;18.40;2.97;;;;;;;;;;5096903;28;20075;-83
2022/06/19 01:11:14;;;;;;;17.45;3.05;;;;;;;;;;5106558;28;20028;-83
2022/06/19 01:13:40;;;;;;;14.90;2.90;;;;;;;;;;5090312;28;20055;-83
2022/06/19 01:16:08;;;;;;;18.15;2.72;;;;;;;;;;5100880;28;20148;-80
2022/06/19 01:18:34;;;;;;;16.92;2.97;;;;;;;;;;5089676;28;20048;-82
2022/06/19 01:21:28;;;;;;;16.08;2.45;;;15.10;99.90;;;;;;5089795;28;20047;-83
2022/06/19 01:24:21;;;;;;;19.50;4.28;;;15.10;99.90;;;;;;5084357;28;20181;-79
2022/06/19 01:26:50;;;;;;;19.48;2.72;;;;;;;;;;5092356;28;20055;-82
2022/06/19 01:29:17;;;;;;;13.27;2.75;;;;;;;;;;5110290;28;20047;-79
2022/06/19 01:31:46;;;;;;;21.45;3.65;;;;;;;;;;5093537;28;20047;-82
2022/06/19 01:34:26;;;;;;;16.17;3.17;;;;;;;;;;5096690;28;20488;-80
2022/06/19 01:37:13;;;;;;;17.80;2.88;;;;;;;;;;5097159;28;20039;-83
2022/06/19 01:39:44;;;;;;;16.45;2.92;;;;;;;;;;5091464;28;20052;-83
2022/06/19 01:42:11;;;;;;;15.95;3.20;;;;;;;;;;5097578;28;20079;-83
2022/06/19 01:44:38;;;;;;;15.80;3.25;;;;;;;;;;5100722;28;20051;-82
2022/06/19 01:47:04;;;;;;;22.38;3.42;;;;;;;;;;5092978;28;20114;-82
2022/06/19 01:49:31;;;;;;;24.05;3.72;;;;;;;;;;5096340;28;20046;-81
2022/06/19 01:51:58;;;;;;;16.75;3.03;;;;;;;;;;5105041;28;20050;-80
2022/06/19 01:54:29;;;;;;;15.35;2.70;;;;;;;;;;5112880;28;20403;-79
2022/06/19 01:56:57;;;;;;;18.25;3.05;;;;;;;;;;5101660;28;20027;-78
2022/06/19 01:59:24;;;;;;;13.85;3.03;;;;;;;;;;5111680;28;20036;-80
2022/06/19 02:01:53;;;;;;;13.20;2.75;;;;;;;;;;5107612;28;20142;-77
2022/06/19 02:04:20;;;;;;;18.65;3.22;;;;;;;;;;5094990;28;20048;-80
2022/06/19 02:06:48;;;;;;;21.27;3.05;;;;;;;;;;5107728;28;20067;-79
2022/06/19 02:09:16;;;;;;;17.83;3.30;;;;;;;;;;5109070;28;20040;-81
2022/06/19 02:11:42;;;;;;;12.90;2.35;;;;;;;;;;5094199;28;20035;-81
2022/06/19 02:14:09;;;;;;;15.45;2.70;;;;;;;;;;5093861;28;20047;-81
2022/06/19 02:16:37;;;;;;;16.80;3.08;;;;;;;;;;5090286;28;20042;-80
2022/06/19 02:19:03;;;;;;;11.10;1.85;;;;;;;;;;5102432;28;20074;-81
2022/06/19 02:21:51;;;;;;;26.35;2.88;;;;;;;;;;5087198;28;20124;-80
2022/06/19 02:24:19;;;;;;;15.13;2.35;;;;;;;;;;5091632;28;20056;-80
2022/06/19 02:26:47;;;;;;;16.95;3.15;;;;;;;;;;5099308;28;20023;-82
2022/06/19 02:29:16;;;;;;;13.82;3.00;;;;;;;;;;5099500;28;20566;-82
2022/06/19 02:31:43;;;;;;;13.40;2.53;;;;;;;;;;5105976;28;20384;-81
2022/06/19 02:34:30;;;;;;;12.50;2.40;;;;;;;;;;5103279;28;20058;-79
2022/06/19 02:37:03;;;;;;;19.65;3.15;;;;;;;;;;5092456;28;20048;-78
2022/06/19 02:39:32;;;;;;;16.83;3.70;;;;;;;;;;5107132;28;20460;-82
2022/06/19 02:42:01;;;;;;;17.10;3.20;;;;;;;;;;5101459;28;20032;-81
2022/06/19 02:44:31;;;;;;;15.77;2.22;;;;;;;;;;5101480;28;20036;-83
2022/06/19 02:46:57;;;;;;;16.80;2.47;;;;;;;;;;5094699;28;20048;-82
2022/06/19 02:49:23;;;;;;;14.32;3.00;;;;;;;;;;5102746;28;20099;-78
2022/06/19 02:51:50;;;;;;;21.95;2.58;;;;;;;;;;5103362;28;20044;-82
2022/06/19 02:54:16;;;;;;;24.33;3.03;;;;;;;;;;5091933;28;20040;-83
2022/06/19 02:56:42;;;;;;;16.60;2.85;;;;;;;;;;5087933;28;20031;-79
2022/06/19 02:59:08;;;;;;;25.17;3.13;;;;;;;;;;5096284;28;20036;-83
2022/06/19 03:01:34;;;;;;;13.32;2.60;;;;;;;;;;5105346;28;20042;-79
2022/06/19 03:04:00;;;;;;;13.93;2.60;;;;;;;;;;5109643;28;20119;-79
2022/06/19 03:06:26;;;;;;;16.10;2.13;;;;;;;;;;5095995;28;20036;-82
2022/06/19 03:08:52;;;;;;;13.00;2.40;;;;;;;;;;5090766;28;20036;-83
2022/06/19 03:11:18;;;;;;;24.77;3.85;;;;;;;;;;5096273;28;20051;-81
2022/06/19 03:13:46;;;;;;;15.52;2.50;;;;;;;;;;5101578;28;20043;-82
2022/06/19 03:16:12;;;;;;;21.05;3.42;;;;;;;;;;5105112;27;20044;-78
2022/06/19 03:18:38;;;;;;;15.95;2.40;;;;;;;;;;5092006;28;20040;-82
2022/06/19 03:21:05;;;;;;;24.13;3.22;;;;;;;;;;5104117;28;20118;-78
2022/06/19 03:23:31;;;;;;;23.17;3.35;;;;;;;;;;5108796;28;20036;-83
2022/06/19 03:25:57;;;;;;;15.18;2.88;;;;;;;;;;5097393;28;20040;-81
2022/06/19 03:28:23;;;;;;;11.73;2.38;;;;;;;;;;5105253;28;20036;-80
2022/06/19 03:30:53;;;;;;;13.35;2.05;;;;;;;;;;5099362;28;20038;-82
2022/06/19 03:33:19;;;;;;;17.98;2.90;;;;;;;;;;5104229;28;20086;-82
2022/06/19 03:35:46;;;;;;;21.42;4.43;;;;;;;;;;5101212;28;20032;-80
2022/06/19 03:38:12;;;;;;;23.88;2.92;;;;;;;;;;5106637;28;20040;-81
2022/06/19 03:40:38;;;;;;;17.65;2.55;;;;;;;;;;5099445;28;20048;-82
2022/06/19 03:43:04;;;;;;;16.65;3.00;;;;;;;;;;5095291;28;20036;-82
2022/06/19 03:45:30;;;;;;;14.32;2.75;;;;;;;;;;5090465;28;20051;-81
2022/06/19 03:47:56;;;;;;;14.45;2.42;;;;;;;;;;5080804;28;20040;-82
2022/06/19 03:50:25;;;;;;;20.92;3.53;;;;;;;;;;5098931;28;20050;-82
2022/06/19 03:52:51;;;;;;;19.15;3.40;;;;;;;;;;5075122;28;20051;-83
2022/06/19 03:55:17;;;;;;;21.75;3.25;;;;;;;;;;5094706;28;20048;-77
2022/06/19 03:57:43;;;;;;;16.77;3.50;;;;;;;;;;5094313;28;20028;-80
2022/06/19 04:00:12;;;;;;;25.33;3.67;;;;;;;;;;5096260;28;20043;-86
2022/06/19 04:02:38;;;;;;;27.50;4.20;;;;;;;;;;5092942;28;20043;-80
2022/06/19 04:05:04;;;;;;;24.98;5.28;;;;;;;;;;5102755;28;20070;-82
2022/06/19 04:07:30;;;;;;;14.32;2.70;;;;;;;;;;5091318;28;20055;-77
2022/06/19 04:09:59;;;;;;;20.63;3.17;;;;;;;;;;5103275;28;20044;-84
2022/06/19 04:12:25;;;;;;;20.60;3.10;;;;;;;;;;5090881;28;20571;-83
2022/06/19 04:14:52;;;;;;;18.38;2.55;;;;;;;;;;5103617;28;20361;-76
2022/06/19 04:17:18;;;;;;;16.52;2.83;;;;;;;;;;5092006;28;20492;-75
2022/06/19 04:19:44;;;;;;;12.23;2.70;;;;;;;;;;5078939;28;20399;-84
2022/06/19 04:22:10;;;;;;;13.00;2.00;;;;;;;;;;5107446;28;20530;-78
2022/06/19 04:24:36;;;;;;;18.10;3.15;;;;;;;;;;5102900;28;20392;-79
2022/06/19 04:27:06;;;;;;;28.35;3.50;;;;;;;;;;5104272;28;20044;-83
2022/06/19 04:29:32;;;;;;;23.08;3.30;;;;;;;;;;5098278;28;20055;-85
2022/06/19 04:31:58;;;;;;;16.80;2.53;;;;;;;;;;5093859;28;20028;-86
2022/06/19 04:34:24;;;;;;;18.05;2.85;;;;;;;;;;5101269;28;20036;-84
2022/06/19 04:36:50;;;;;;;21.42;3.40;;;;;;;;;;5100903;28;20113;-85
2022/06/19 04:39:16;;;;;;;15.00;2.67;;;;;;;;;;5096975;28;20045;-86
2022/06/19 04:41:43;;;;;;;15.80;2.63;;;;;;;;;;5091090;28;20518;-83
2022/06/19 04:44:17;;;;;;;16.15;3.33;;;;;;;;;;5079137;28;20131;-85
2022/06/19 04:46:43;;;;;;;21.05;3.30;;;;;;;;;;5094695;28;20367;-80
2022/06/19 04:49:10;;;;;;;19.38;3.00;;;;;;;;;;5094626;28;20052;-79
2022/06/19 04:51:37;;;;;;;13.60;2.45;;;;;;;;;;5100527;28;20036;-81
2022/06/19 04:54:03;;;;;;;12.40;2.42;;;;;;;;;;5090835;28;20394;-80
2022/06/19 04:56:30;;;;;;;16.80;2.70;;;;;;;;;;5089193;28;20112;-83
2022/06/19 04:58:56;;;;;;;21.95;3.40;;;;;;;;;;5077936;28;20036;-76
2022/06/19 05:01:32;;;;;;;23.67;3.95;;;;;;;;;;5092218;28;20047;-80
2022/06/19 05:03:59;;;;;;;21.25;2.85;;;;;;;;;;5095533;28;20066;-79
2022/06/19 05:06:26;;;;;;;19.85;3.35;;;;;;;;;;5107119;28;20040;-82
2022/06/19 05:08:52;;;;;;;19.50;3.22;;;;;;;;;;5079170;28;20077;-74
2022/06/19 05:11:18;;;;;;;14.88;2.40;;;;;;;;;;5091255;28;20043;-82
2022/06/19 05:13:44;;;;;;;19.02;3.10;;;;;;;;;;5095112;28;20036;-80
2022/06/19 05:16:13;;;;;;;22.25;3.35;;;;;;;;;;5102807;28;20024;-77
2022/06/19 05:18:39;;;;;;;27.83;3.53;;;;;;;;;;5096775;28;20097;-79
2022/06/19 05:21:05;;;;;;;17.17;3.25;;;;;;;;;;5100084;28;20047;-78
2022/06/19 05:23:32;;;;;;;24.80;3.33;;;;;;;;;;5084680;28;20430;-79
2022/06/19 05:26:02;;;;;;;24.35;3.47;;;;;;;;;;5096056;28;20143;-76
2022/06/19 05:28:30;;;;;;;11.80;2.72;;;;;;;;;;5094499;28;20047;-82
2022/06/19 05:30:57;;;;;;;14.15;2.10;;;;;;;;;;5094564;28;20359;-82
2022/06/19 05:33:23;;;;;;;15.38;3.05;;;;;;;;;;5098369;28;20040;-83
2022/06/19 05:35:49;;;;;;;15.65;2.90;;;;;;;;;;5094690;28;20700;-81
2022/06/19 05:38:15;;;;;;;13.18;2.15;;;;;;;;;;5070606;28;20047;-74
2022/06/19 05:40:41;;;;;;;17.42;2.75;;;;;;;;;;5096179;28;20043;-84
2022/06/19 05:43:10;;;;;;;17.40;2.78;;;;;;;;;;5090814;28;20579;-81
2022/06/19 05:45:36;;;;;;;15.90;3.00;;;;;;;;;;5070689;28;20044;-81
2022/06/19 05:48:03;;;;;;;19.73;3.33;;;;;;;;;;5092502;28;20724;-83
2022/06/19 05:50:31;;;;;;;13.15;2.30;;;;;;;;;;5099722;28;20039;-78
2022/06/19 05:52:57;;;;;;;21.58;3.08;;;;;;;;;;5097680;28;20119;-83
2022/06/19 05:55:23;;;;;;;19.88;2.70;;;;;;;;;;5092550;28;20052;-83
2022/06/19 05:57:49;;;;;;;22.00;2.90;;;;;;;;;;5097778;28;20049;-81
2022/06/19 06:00:17;;;;;;;20.35;3.75;;;;;;;;;;5101681;28;20059;-80
2022/06/19 06:02:44;;;;;;;21.75;2.90;;;;;;;;;;5098907;28;20043;-80
2022/06/19 06:05:10;;;;;;;19.35;2.83;;;;;;;;;;5083442;28;20066;-82
2022/06/19 06:07:36;;;;;;;12.40;2.22;;;;;;;;;;5090782;28;20392;-83
2022/06/19 06:10:02;;;;;;;17.90;2.80;;;;;;;;;;5103967;28;20072;-84
2022/06/19 06:12:28;;;;;;;14.48;2.63;;;;;;;;;;5104962;28;20048;-82
2022/06/19 06:14:54;;;;;;;17.42;2.95;;;;;;;;;;5105768;27;20130;-75
2022/06/19 06:17:23;;;;;;;20.88;2.72;;;;;;;;;;5097914;27;20040;-81
2022/06/19 06:19:49;;;;;;;15.55;3.05;;;;;;;;;;5094703;28;20130;-80
2022/06/19 06:22:15;;;;;;;10.57;2.13;;;;;;;;;;5097066;28;20158;-77
2022/06/19 06:24:41;;;;;;;13.43;3.22;;;;;;;;;;5089315;28;20480;-83
2022/06/19 06:27:07;;;;;;;13.02;2.17;;;;;;;;;;5090552;28;20085;-78
2022/06/19 06:29:33;;;;;;;19.13;2.83;;;;;;;;;;5107234;28;20415;-81
2022/06/19 06:31:59;;;;;;;16.13;3.58;;;;;;;;;;5099588;28;20036;-80
2022/06/19 06:34:25;;;;;;;16.20;2.50;;;;;;;;;;5094199;28;20169;-75
2022/06/19 06:36:52;;;;;;;9.68;1.90;;;;;;;;;;5096627;28;20081;-80
2022/06/19 06:39:18;;;;;;;16.42;2.88;;;;;;;;;;5091106;28;20036;-82
2022/06/19 06:41:44;;;;;;;15.27;2.55;;;;;;;;;;5089424;28;20048;-77
2022/06/19 06:44:13;;;;;;;15.05;2.75;;;;;;;;;;5091393;28;20108;-81
2022/06/19 06:46:40;;;;;;;13.68;3.13;;;;;;;;;;5101510;27;20043;-79
2022/06/19 06:49:06;;;;;;;13.15;2.58;;;;;;;;;;5089427;28;20052;-77
2022/06/19 06:51:32;;;;;;;15.52;2.55;;;;;;;;;;5110835;28;20055;-79
2022/06/19 06:53:59;;;;;;;18.25;3.08;;;;;;;;;;5105772;28;20044;-77
2022/06/19 06:56:25;;;;;;;23.02;3.03;;;;;;;;;;5096630;28;20113;-75
2022/06/19 06:58:51;;;;;;;15.63;2.35;;;;;;;;;;5098911;28;20086;-78
2022/06/19 07:01:20;;;;;;;16.60;2.85;;;;;;;;;;5104814;27;20047;-75
2022/06/19 07:03:47;;;;;;;25.27;3.30;;;;;;;;;;5097578;28;20059;-78
2022/06/19 07:06:14;;;;;;;24.88;2.90;;;;;;;;;;5104346;28;20549;-79
2022/06/19 07:08:40;;;;;;;20.38;2.83;;;;;;;;;;5099251;28;20127;-76
2022/06/19 07:11:06;;;;;;;12.40;2.67;;;;;;;;;;5089187;28;20514;-77
2022/06/19 07:13:33;;;;;;;14.98;2.50;;;;;;;;;;5088626;28;20419;-78
2022/06/19 07:15:59;;;;;;;17.58;3.30;;;;;;;;;;5089640;28;20043;-78
2022/06/19 07:18:25;;;;;;;13.63;2.08;;;;;;;;;;5088326;28;20690;-74
2022/06/19 07:20:51;;;;;;;14.75;2.22;;;;;;;;;;5092698;28;20058;-81
2022/06/19 07:23:17;;;;;;;17.10;2.13;;;;;;;;;;5088348;28;20043;-81
2022/06/19 07:25:43;;;;;;;14.75;2.90;;;;;;;;;;5090963;28;20063;-75
2022/06/19 07:28:13;;;;;;;17.80;3.53;;;;;;;;;;5106836;28;20051;-80
2022/06/19 07:30:39;;;;;;;18.08;2.40;;;;;;;;;;5105108;28;20548;-82
2022/06/19 07:33:05;;;;;;;14.68;2.83;;;;;;;;;;5085907;28;20413;-76
2022/06/19 07:35:31;;;;;;;12.68;2.60;;;;;;;;;;5090789;28;20040;-78
2022/06/19 07:37:57;;;;;;;15.52;2.20;;;;;;;;;;5089004;28;20039;-76
2022/06/19 07:40:25;;;;;;;14.80;2.22;;;;;;;;;;5087281;28;20037;-79
2022/06/19 07:42:51;;;;;;;13.43;2.67;;;;;;;;;;5106904;28;20038;-76
2022/06/19 07:45:17;;;;;;;19.77;3.15;;;;;;;;;;5094296;28;20109;-78
2022/06/19 07:50:28;;;;;;;16.77;3.00;;;;;;;;;;5092266;28;20059;-74
2022/06/19 07:52:54;;;;;;;12.88;2.13;;;;;;;;;;5098474;28;20044;-77
2022/06/19 07:55:22;;;;;;;12.48;2.17;;;;;;;;;;5088074;28;20040;-75
2022/06/19 07:57:49;;;;;;;10.02;2.13;;;;;;;;;;5089401;28;20036;-80
2022/06/19 08:00:20;;;;;;;12.48;2.00;;;;;;;;;;5107476;28;20043;-79
2022/06/19 08:02:48;;;;;;;14.35;2.47;;;;;;;;;;5090667;28;20096;-82
2022/06/19 08:05:15;;;;;;;10.05;2.05;;;;;;;;;;5089419;28;20503;-76
2022/06/19 08:07:41;;;;;;;11.20;2.22;;;;;;;;;;5089676;27;20044;-79
2022/06/19 08:10:09;;;;;;;14.50;2.20;;;;;;;;;;5096621;27;20044;-80
2022/06/19 08:12:35;;;;;;;14.40;1.90;;;;;;;;;;5100269;28;20162;-80
2022/06/19 08:15:02;;;;;;;13.35;2.10;;;;;;;;;;5097891;28;20028;-78
2022/06/19 08:17:28;;;;;;;13.98;2.40;;;;;;;;;;5088935;28;20067;-75
2022/06/19 08:19:54;;;;;;;11.52;2.15;;;;;;;;;;5094429;28;20127;-79
2022/06/19 08:22:20;;;;;;;12.38;2.08;;;;;;;;;;5091406;28;20063;-75
2022/06/19 08:24:46;;;;;;;12.38;1.98;;;;;;;;;;5102510;28;20054;-74
2022/06/19 08:27:12;;;;;;;11.02;2.80;;;;;;;;;;5093427;28;20044;-76
2022/06/19 08:29:38;;;;;;;9.82;2.42;;;;;;;;;;5098941;28;20051;-79
2022/06/19 08:32:05;;;;;;;12.00;2.75;;;;;;;;;;5086829;28;20403;-77
2022/06/19 08:34:31;;;;;;;9.52;1.90;;;;;;;;;;5087004;28;20177;-79
2022/06/19 08:36:58;;;;;;;10.10;2.03;;;;;;;;;;5085358;28;20048;-80
2022/06/19 08:39:24;;;;;;;10.82;1.77;;;;;;;;;;5098211;28;20123;-79
2022/06/19 08:42:09;;;;;;;11.93;2.53;;;;;;;;;;5100596;28;20139;-75
2022/06/19 08:44:45;;;;;;;15.82;2.20;;;;;;;;;;5085693;28;20166;-77
2022/06/19 08:47:16;;;;;;;10.63;2.08;;;;;;;;;;5099446;28;20132;-77
2022/06/19 08:49:50;;;;;;;8.13;2.17;;;;;;;;;;5086551;28;20131;-79
2022/06/19 08:52:35;;;;;;;10.57;2.10;;;;;;;;;;5097064;28;20044;-78
2022/06/19 08:55:19;;;;;;;10.00;2.10;;;;;;;;;;5086040;28;20044;-74
2022/06/19 08:57:45;;;;;;;9.13;1.77;;;;;;;;;;5079866;28;20044;-77
2022/06/19 09:00:17;;;;;;;8.60;1.83;;;;;;;;;;5084896;28;20128;-80
2022/06/19 09:03:06;;;;;;;7.82;1.65;;;;;;;;;;5084589;28;20553;-78
2022/06/19 09:05:47;;;;;;;10.23;1.67;;;;;;;;;;5087549;28;20059;-73
2022/06/19 09:08:25;;;;;;;7.20;1.92;;;;;;;;;;5094281;28;20090;-77
2022/06/19 09:10:55;;;;;;;7.28;1.80;;;;;;;;;;5092685;28;20051;-78
2022/06/19 09:13:24;;;;;;;8.80;2.20;;;;;;;;;;5087071;28;20442;-77
2022/06/19 09:16:01;;;;;;;6.97;1.67;;;;;;;;;;5088176;28;20487;-78
2022/06/19 09:18:30;;;;;;;10.05;1.77;;;;;;;;;;5087104;28;20048;-80
2022/06/19 09:21:07;;;;;;;10.07;1.92;;;;;;;;;;5088836;27;20036;-78
2022/06/19 09:23:36;;;;;;;9.80;1.90;;;;;;;;;;5106433;28;20401;-77
2022/06/19 09:26:08;;;;;;;14.15;2.20;;;;;;;;;;5091402;28;20055;-79
2022/06/19 09:28:34;;;;;;;7.05;1.48;;;;;;;;;;5089488;28;20679;-80
2022/06/19 09:31:00;;;;;;;6.63;1.38;;;;;;;;;;5090462;28;20047;-77
2022/06/19 09:33:26;;;;;;;8.13;2.05;;;;;;;;;;5097899;28;20109;-76
2022/06/19 09:35:57;;;;;;;3.78;1.10;;;;;;;;;;5105290;28;20039;-80
2022/06/19 09:38:32;;;;;;;6.40;1.45;;;;;;;;;;5105791;28;20055;-76
2022/06/19 09:41:01;;;;;;;7.60;1.27;;;;;;;;;;5089959;28;20036;-79
2022/06/19 09:43:34;;;;;;;9.02;2.05;;;;;;;;;;5095214;28;20819;-76
2022/06/19 09:46:07;;;;;;;9.32;2.13;;;;;;;;;;5093521;28;20118;-81
2022/06/19 09:48:38;;;;;;;3.70;1.20;;;;;;;;;;5093171;28;20032;-80
2022/06/19 09:51:23;;;;;;;4.97;1.63;;;;;;;;;;5109596;28;20027;-79
2022/06/19 09:53:55;;;;;;;8.05;1.67;;;;;;;;;;5090300;28;20102;-77
2022/06/19 09:56:29;;;;;;;4.57;0.90;;;;;;;;;;5097669;28;20490;-75
2022/06/19 09:59:01;;;;;;;5.13;1.20;;;;;;;;;;5093578;28;20043;-77
2022/06/19 10:01:28;;;;;;;4.35;1.10;;;;;;;;;;5090844;28;20130;-75
2022/06/19 10:04:01;;;;;;;4.65;1.42;;;;;;;;;;5091241;28;20082;-81
2022/06/19 10:06:42;;;;;;;4.15;1.30;;;;;;;;;;5092265;28;20072;-81
2022/06/19 10:09:16;;;;;;;4.97;1.08;;;;;;;;;;5105315;28;20052;-78
2022/06/19 10:11:42;;;;;;;;;;;;;;;;;;5099536;28;20040;-80
2022/06/19 10:14:34;;;;;;;4.93;0.80;;;;;;;;;;5107273;28;20399;-81
2022/06/19 10:17:03;;;;;;;3.00;0.90;;;;;;;;;;5099161;28;20161;-80
2022/06/19 10:19:38;;;;;;;5.15;1.10;;;;;;;;;;5101494;28;20127;-78
2022/06/19 10:22:15;;;;;;;4.85;1.10;;;;;;;;;;5089394;28;20036;-75
2022/06/19 10:24:41;;;;;;;3.40;0.93;;;;;;;;;;5095460;28;20043;-80
2022/06/19 10:27:16;;;;;;;3.92;0.90;;;;;;;;;;5119050;28;20381;-74
2022/06/19 10:29:54;;;;;;;5.32;1.10;;;;;;;;;;5100408;28;20082;-79
2022/06/19 10:32:31;;;;;;;4.68;1.10;;;;;;;;;;5111869;28;20070;-76
2022/06/19 10:35:26;;;;;;;1.83;0.70;;;;;;;;;;5102895;28;20070;-79
2022/06/19 10:38:03;;;;;;;3.88;0.70;;;;;;;;;;5092800;28;20066;-79
2022/06/19 10:40:32;;;;;;;1.75;0.70;;;;;;;;;;5091159;28;20047;-76
2022/06/19 10:43:04;;;;;;;3.80;0.70;;;;;;;;;;5101109;28;20050;-79
2022/06/19 10:45:46;;;;;;;4.72;0.77;;;;;;;;;;5098751;28;20078;-78
2022/06/19 10:48:21;;;;;;;1.77;0.70;;;;;;;;;;5093257;28;20052;-81
2022/06/19 10:50:51;;;;;;;4.97;0.88;;;;;;;;;;5099631;28;20135;-76
2022/06/19 10:53:32;;;;;;;4.82;1.15;;;;;;;;;;5103180;28;20055;-83
2022/06/19 10:56:17;;;;;;;2.85;1.10;;;;;;;;;;5088455;28;20082;-79
2022/06/19 10:58:45;;;;;;;4.05;1.10;;;;;;;;;;5095484;28;20059;-81
2022/06/19 11:04:06;;;;;;;3.03;0.75;;;;;;;;;;5068788;28;20039;-76
2022/06/19 11:04:10;;;;;;;2.58;0.90;;;;;;;;;;5075027;28;20054;-79
2022/06/19 11:06:45;;;;;;;3.60;1.00;;;;;;;;;;5088713;28;20495;-80
2022/06/19 11:09:35;;;;;;;6.50;1.00;;;;;;;;;;5088543;28;20063;-73
2022/06/19 11:12:16;;;;;;;5.90;1.00;;;;;;;;;;5068357;28;20450;-77
2022/06/19 11:14:49;;;;;;;3.22;1.00;;;;;;;;;;5090030;28;20138;-79
2022/06/19 11:17:27;;;;;;;10.00;1.10;;;;;;;;;;5072110;28;20044;-78
2022/06/19 11:19:54;;;;;;;11.05;2.10;;;;;;;;;;5089181;28;20347;-80
2022/06/19 11:22:23;;;;;;;4.55;0.90;;;;;;;;;;5090074;28;20369;-79
2022/06/19 11:24:49;;;;;;;4.38;1.25;;;;;;;;;;5097125;28;20052;-80
2022/06/19 11:27:25;;;;;;;4.45;1.00;;;;;;;;;;5088725;28;20471;-81
2022/06/19 11:29:53;;;;;;;4.78;1.08;;;;;;;;;;5088852;28;20040;-77
2022/06/19 11:32:20;;;;;;;4.22;1.25;;;;;;;;;;5089360;28;20389;-78
2022/06/19 11:34:55;;;;;;;2.72;0.80;;;;;;;;;;5088049;28;20071;-82
2022/06/19 11:37:28;;;;;;;4.38;1.00;;;;;;;;;;5088020;28;20119;-77
2022/06/19 11:39:54;;;;;;;4.65;1.10;;;;;;;;;;5076531;28;20086;-78
2022/06/19 11:42:20;;;;;;;4.80;1.05;;;;;;;;;;5086205;28;20044;-77
2022/06/19 11:44:51;;;;;;;4.13;1.10;;;;;;;;;;5091860;28;20079;-82
2022/06/19 11:47:18;;;;;;;4.22;1.30;;;;;;;;;;5102602;28;20040;-75
2022/06/19 11:49:44;;;;;;;3.35;0.93;;;;;;;;;;5096339;28;20421;-81
2022/06/19 11:52:18;;;;;;;5.28;1.05;;;;;;;;;;5098312;28;20051;-77
2022/06/19 11:54:46;;;;;;;5.60;1.30;;;;;;;;;;5102179;28;20458;-77
2022/06/19 11:57:33;;;;;;;8.70;1.60;;;;;;;;;;5089670;28;20051;-75
2022/06/19 12:00:01;;;;;;;6.93;1.90;;;;;;;;;;5079442;28;20043;-78
2022/06/19 12:02:27;;;;;;;3.92;1.17;;;;;;;;;;5095569;28;20039;-80
2022/06/19 12:04:54;;;;;;;6.60;1.45;;;;;;;;;;5083139;28;20075;-80
2022/06/19 12:07:22;;;;;;;7.53;1.92;;;;;;;;;;5100310;28;20432;-75
2022/06/19 12:09:57;;;;;;;3.78;1.23;;;;;;;;;;5097090;28;20046;-82
2022/06/19 12:12:24;;;;;;;7.95;1.83;;;;;;;;;;5097586;28;20047;-76
2022/06/19 12:14:50;;;;;;;6.82;1.40;;;;;;;;;;5097407;28;20051;-76
2022/06/19 12:17:18;;;;;;;5.15;1.60;;;;;;;;;;5100156;28;20136;-75
2022/06/19 12:20:07;;;;;;;7.32;1.58;;;;;;;;;;5098381;28;20126;-79
2022/06/19 12:22:58;;;;;;;5.60;1.50;;;;;;;;;;5095112;28;20403;-79
2022/06/19 12:25:34;;;;;;;8.50;1.77;;;;;;;;;;5080507;28;20051;-76
2022/06/19 12:28:00;;;;;;;6.07;1.33;;;;;;;;;;5097937;28;20032;-76
2022/06/19 12:30:33;;;;;;;8.77;2.15;;;;;;;;;;5098756;28;20096;-77
2022/06/19 12:33:02;;;;;;;7.32;2.00;;;;;;;;;;5101073;28;20038;-81
2022/06/19 12:35:33;;;;;;;8.70;2.05;;;;;;;;;;5094903;28;20050;-79
2022/06/19 12:38:00;;;;;;;5.57;1.40;;;;;;;;;;5081232;28;20050;-75
2022/06/19 12:40:32;;;;;;;8.68;1.35;;;;;;;;;;5096453;28;20079;-75
2022/06/19 12:43:24;;;;;;;6.25;1.88;;;;;;;;;;5096608;28;20032;-78
2022/06/19 12:45:54;;;;;;;8.35;1.75;;;;;;;;;;5097028;28;20059;-75
2022/06/19 12:48:20;;;;;;;4.50;1.27;;;;;;;;;;5080446;28;20126;-79
2022/06/19 12:50:51;;;;;;;5.22;1.25;;;;;;;;;;5098426;28;20075;-76
2022/06/19 12:53:31;;;;;;;5.50;1.33;;;;;;;;;;5086516;28;20035;-77
2022/06/19 12:56:00;;;;;;;8.25;1.73;;;;;;;;;;5098755;28;20071;-75
2022/06/19 12:58:29;;;;;;;6.68;1.58;;;;;;;;;;5100417;28;20136;-79
2022/06/19 13:01:09;;;;;;;4.03;1.23;;;;;;;;;;5090958;28;20036;-80
2022/06/19 13:03:39;;;;;;;7.00;1.50;;;;;;;;;;5074543;28;20044;-76
2022/06/19 13:06:18;;;;;;;8.15;1.55;;;;;;;;;;5108353;28;20112;-77
2022/06/19 13:08:50;;;;;;;5.20;1.25;;;;;;;;;;5081410;28;20050;-79
2022/06/19 13:11:17;;;;;;;5.60;1.35;;;;;;;;;;5103463;28;20134;-79
2022/06/19 13:13:53;;;;;;;3.78;0.93;;;;;;;;;;5094917;28;20100;-77
2022/06/19 13:16:32;;;;;;;5.10;1.63;;;;;;;;;;5089575;28;20040;-75
2022/06/19 13:19:09;;;;;;;5.53;1.52;;;;;;;;;;5103669;28;20044;-78
2022/06/19 13:21:54;;;;;;;4.40;1.15;;;;;;;;;;5086048;28;20040;-80
2022/06/19 13:24:25;;;;;;;5.50;1.02;;;;;;;;;;5086677;28;20126;-77
2022/06/19 13:27:12;;;;;;;8.68;1.30;;;;;;;;;;5085125;28;20040;-76
2022/06/19 13:29:47;;;;;;;5.97;1.50;;;;;;;;;;5098856;28;20123;-77
2022/06/19 13:32:38;;;;;;;6.57;1.35;;;;;;;;;;5098694;28;20380;-76
2022/06/19 13:35:12;;;;;;;6.32;1.23;;;;;;;;;;5067316;28;20552;-74
2022/06/19 13:37:57;;;;;;;10.68;1.40;;;;;;;;;;5100634;28;20035;-77
2022/06/19 13:40:42;;;;;;;7.43;1.10;;;;;;;;;;5073361;28;21092;-80
2022/06/19 13:43:21;;;;;;;6.13;1.83;;;;;;;;;;5084361;28;20047;-81
2022/06/19 13:46:06;;;;;;;7.55;1.30;;;;;;;;;;5103061;28;20043;-80
2022/06/19 13:48:35;;;;;;;5.93;1.40;;;;;;;;;;5073653;28;20044;-75
2022/06/19 13:51:11;;;;;;;4.72;1.13;;;;;;;;;;5084870;28;20422;-77
2022/06/19 13:53:37;;;;;;;4.10;1.15;;;;;;;;;;5085302;28;20043;-75
2022/06/19 13:56:07;;;;;;;5.15;1.33;;;;;;;;;;5088367;28;20437;-76
2022/06/19 13:58:41;;;;;;;5.97;1.10;;;;;;;;;;5094793;28;20035;-74
2022/06/19 14:01:07;;;;;;;;;;;;;;;;;;5084795;28;20511;-79
2022/06/19 14:06:40;;;;;;;8.82;1.73;;;;;;;;;;5093535;28;20189;-80
2022/06/19 14:09:12;;;;;;;5.53;1.13;;;;;;;;;;5102728;28;20046;-76
2022/06/19 14:14:26;;;;;;;4.50;1.52;;;;;;;;;;5096608;28;20090;-77
2022/06/19 14:17:00;;;;;;;8.50;1.55;;;;;;;;;;5095079;28;20453;-75
2022/06/19 14:19:52;;;;;;;6.85;1.45;;;;;;;;;;5103623;28;20035;-76
2022/06/19 14:22:22;;;;;;;5.57;1.60;;;;;;;;;;5096096;27;20086;-76
2022/06/19 14:25:03;;;;;;;6.82;1.70;;;;;;;;;;5095004;28;20487;-77
2022/06/19 14:27:46;;;;;;;7.47;1.88;;;;;;;;;;5090609;28;20048;-75
2022/06/19 14:30:14;;;;;;;12.75;1.60;;;;;;;;;;5101362;28;20486;-77
2022/06/19 14:32:51;;;;;;;7.72;2.33;;;;;;;;;;5098392;27;20422;-79
2022/06/19 14:35:18;;;;;;;11.05;2.38;;;;;;;;;;5101711;28;20142;-76
2022/06/19 14:37:49;;;;;;;10.35;1.90;;;;;;;;;;5100179;28;20527;-81
2022/06/19 14:40:18;;;;;;;7.85;1.55;;;;;;;;;;5098718;28;20502;-75
2022/06/19 14:42:49;;;;;;;8.73;1.70;;;;;;;;;;5095840;28;20103;-77
2022/06/19 14:45:18;;;;;;;8.10;1.58;;;;;;;;;;5098320;28;20075;-74
2022/06/19 14:47:53;;;;;;;10.60;2.22;;;;;;;;;;5097280;28;20430;-76
2022/06/19 14:50:35;;;;;;;10.55;2.00;;;;;;;;;;5105327;28;20047;-75
2022/06/19 14:53:10;;;;;;;9.85;1.80;;;;;;;;;;5102021;28;20047;-80
2022/06/19 14:55:45;;;;;;;7.18;2.05;;;;;;;;;;5101890;28;20053;-75
2022/06/19 14:58:16;;;;;;;12.98;1.80;;;;;;;;;;5098737;28;20054;-74
2022/06/19 15:00:45;;;;;;;8.98;2.33;;;;;;;;;;5098994;28;20039;-75
2022/06/19 15:03:41;;;;;;;7.03;1.88;;;;;;;;;;5095794;28;20051;-74